Weather at Miami-Opa Locka Executive Airport

Public forecast

Using degrees Fahrenheit for public forecast. Weather courtesy of forecast.io.

Current aviation weather report (METAR) for Miami-Opa Locka Executive Airport

Retrieved 2021/04/15 16:53 UTC (1 hour ago):

KOPF 151653Z 20009KT 10SM CLR 27/17 A2996 RMK AO2 SLP145 T02720172 PNO

Aviation forecast (TAF) for Miami-Opa Locka Executive Airport

Retrieved 2021/04/15 12:34 UTC (5 hours ago):

TAF KOPF 151132Z 1512/1612 VRB03KT P6SM SKC FM151400 16012KT P6SM SCT030 FM152000 20010KT P6SM SCT045 FM160100 24005KT P6SM SKC